createdAt,value
2018-09-01T00:02:12.153Z,22.13
2018-09-01T00:04:45.326Z,24.15
2018-09-01T00:07:18.497Z,28.37
2018-09-01T00:09:51.625Z,27.43
2018-09-01T00:12:24.751Z,23.47
2018-09-01T00:14:57.860Z,23.33
2018-09-01T00:17:31.428Z,23.10
2018-09-01T00:20:04.666Z,24.53
2018-09-01T00:22:37.801Z,21.83
2018-09-01T00:25:10.936Z,27.07
2018-09-01T00:27:44.069Z,27.10
2018-09-01T00:30:17.237Z,23.50
2018-09-01T00:32:51.306Z,28.67
2018-09-01T00:35:24.513Z,23.80
2018-09-01T00:38:03.261Z,25.47
2018-09-01T00:40:36.454Z,23.73
2018-09-01T00:43:09.545Z,25.32
2018-09-01T00:45:42.757Z,22.57
2018-09-01T00:48:15.862Z,25.20
2018-09-01T00:50:48.973Z,20.47
2018-09-01T00:53:22.253Z,23.83
2018-09-01T00:55:55.400Z,21.70
2018-09-01T00:58:28.593Z,26.57
2018-09-01T01:01:01.769Z,25.70
2018-09-01T01:03:35.034Z,22.80
2018-09-01T01:06:08.181Z,25.30
2018-09-01T01:08:41.317Z,24.95
2018-09-01T01:11:14.714Z,19.40
2018-09-01T01:13:47.857Z,19.40
2018-09-01T01:16:21.017Z,21.67
2018-09-01T01:18:54.109Z,22.33
2018-09-01T01:21:27.266Z,25.10
2018-09-01T01:24:00.354Z,24.83
2018-09-01T01:26:33.457Z,22.43
2018-09-01T01:29:06.572Z,25.20
2018-09-01T01:31:39.698Z,22.63
2018-09-01T01:34:12.951Z,29.83
2018-09-01T01:36:46.069Z,26.20
2018-09-01T01:39:19.198Z,26.60
2018-09-01T01:41:52.273Z,25.20
2018-09-01T01:44:25.389Z,24.43
2018-09-01T01:46:58.622Z,28.70
2018-09-01T01:49:31.809Z,25.53
2018-09-01T01:52:04.854Z,26.53
2018-09-01T01:54:37.996Z,21.90
2018-09-01T01:57:11.093Z,24.00
2018-09-01T01:59:44.317Z,23.27
2018-09-01T02:02:17.637Z,23.73
2018-09-01T02:04:50.773Z,22.67
2018-09-01T02:07:23.909Z,19.55
2018-09-01T02:09:57.028Z,18.13
2018-09-01T02:12:30.097Z,18.83
2018-09-01T02:15:03.239Z,19.63
2018-09-01T02:17:36.337Z,22.13
2018-09-01T02:20:09.475Z,19.57
2018-09-01T02:22:42.566Z,20.27
2018-09-01T02:25:15.929Z,19.13
2018-09-01T02:27:49.023Z,23.97
2018-09-01T02:30:22.242Z,23.93
2018-09-01T02:32:55.365Z,24.57
2018-09-01T02:35:28.492Z,26.33
2018-09-01T02:38:01.710Z,23.60
2018-09-01T02:40:34.827Z,24.53
2018-09-01T02:43:07.918Z,22.67
2018-09-01T02:45:41.037Z,29.37
2018-09-01T02:48:14.164Z,23.80
2018-09-01T02:50:47.312Z,21.00
2018-09-01T02:53:20.417Z,21.10
2018-09-01T02:55:53.481Z,23.37
2018-09-01T02:58:26.595Z,25.90
2018-09-01T03:01:05.434Z,21.50
2018-09-01T03:03:38.581Z,25.87
2018-09-01T03:06:11.708Z,28.00
2018-09-01T03:08:44.806Z,26.90
2018-09-01T03:11:17.963Z,30.03
2018-09-01T03:13:51.146Z,29.23
2018-09-01T03:16:24.261Z,25.33
2018-09-01T03:18:57.446Z,25.63
2018-09-01T03:21:30.606Z,26.17
2018-09-01T03:24:03.805Z,19.33
2018-09-01T03:26:36.916Z,34.20
2018-09-01T03:29:10.190Z,33.77
2018-09-01T03:31:43.312Z,25.73
2018-09-01T03:34:16.401Z,24.87
2018-09-01T03:36:49.537Z,28.33
2018-09-01T03:39:22.601Z,26.90
2018-09-01T03:41:55.747Z,27.57
2018-09-01T03:44:28.836Z,24.85
2018-09-01T03:47:01.997Z,21.97
2018-09-01T03:49:35.146Z,23.07
2018-09-01T03:52:08.248Z,23.60
2018-09-01T03:54:41.365Z,23.07
2018-09-01T03:57:14.506Z,23.27
2018-09-01T03:59:47.602Z,20.97
2018-09-01T04:02:20.701Z,24.83
2018-09-01T04:04:53.880Z,23.30
2018-09-01T04:07:27.011Z,22.23
2018-09-01T04:10:00.088Z,26.70
2018-09-01T04:12:33.201Z,23.73
2018-09-01T04:15:06.877Z,26.13
2018-09-01T04:17:39.985Z,24.43
2018-09-01T04:20:13.196Z,24.10
2018-09-01T04:22:46.421Z,24.30
2018-09-01T04:25:19.520Z,24.13
2018-09-01T04:27:52.638Z,22.87
2018-09-01T04:30:25.730Z,28.80
2018-09-01T04:32:58.853Z,26.30
2018-09-01T04:35:31.933Z,23.03
2018-09-01T04:38:05.140Z,27.47
2018-09-01T04:40:38.230Z,20.23
2018-09-01T04:43:11.356Z,30.00
2018-09-01T04:45:44.441Z,22.17
2018-09-01T04:48:17.538Z,21.50
2018-09-01T04:50:50.680Z,23.37
2018-09-01T04:53:23.826Z,29.23
2018-09-01T04:55:56.942Z,22.60
2018-09-01T04:58:30.064Z,22.93
2018-09-01T05:01:03.293Z,21.47
2018-09-01T05:03:36.328Z,20.60
2018-09-01T05:06:09.455Z,35.87
2018-09-01T05:08:42.583Z,23.17
2018-09-01T05:11:15.725Z,20.63
2018-09-01T05:13:48.873Z,27.13
2018-09-01T05:16:22.036Z,19.47
2018-09-01T05:18:55.225Z,23.33
2018-09-01T05:21:28.338Z,24.43
2018-09-01T05:24:01.497Z,22.43
2018-09-01T05:26:34.569Z,22.37
2018-09-01T05:29:07.764Z,23.50
2018-09-01T05:31:40.934Z,26.63
2018-09-01T05:34:14.370Z,25.57
2018-09-01T05:36:47.477Z,23.60
2018-09-01T05:39:20.536Z,17.40
2018-09-01T05:41:53.662Z,18.13
2018-09-01T05:44:26.760Z,26.33
2018-09-01T05:46:59.903Z,25.37
2018-09-01T05:49:33.002Z,24.45
2018-09-01T05:52:06.142Z,20.60
2018-09-01T05:54:39.285Z,22.85
2018-09-01T05:57:12.417Z,22.27
2018-09-01T05:59:45.590Z,23.93
2018-09-01T06:02:18.792Z,20.97
2018-09-01T06:04:51.941Z,26.70
2018-09-01T06:07:25.123Z,24.00
2018-09-01T06:09:58.240Z,22.75
2018-09-01T06:12:31.435Z,22.43
2018-09-01T06:15:04.974Z,22.10
2018-09-01T06:17:38.245Z,23.27
2018-09-01T06:20:11.249Z,21.80
2018-09-01T06:22:44.385Z,26.13
2018-09-01T06:25:17.527Z,21.67
2018-09-01T06:27:52.413Z,19.17
2018-09-01T06:30:32.148Z,21.52
2018-09-01T06:33:05.315Z,27.77
2018-09-01T06:35:38.499Z,26.35
2018-09-01T06:38:11.888Z,29.60
2018-09-01T06:40:45.018Z,23.98
2018-09-01T06:43:18.699Z,22.05
2018-09-01T06:45:51.845Z,19.07
2018-09-01T06:48:25.017Z,20.90
2018-09-01T06:50:58.166Z,21.37
2018-09-01T06:53:35.891Z,24.05
2018-09-01T06:56:10.728Z,22.80
2018-09-01T06:58:44.211Z,17.95
2018-09-01T07:01:22.034Z,23.07
2018-09-01T07:03:55.462Z,19.57
2018-09-01T07:06:28.625Z,19.37
2018-09-01T07:09:01.792Z,20.48
2018-09-01T07:11:35.114Z,20.23
2018-09-01T07:14:08.269Z,18.32
2018-09-01T07:16:41.398Z,19.57
2018-09-01T07:19:14.657Z,17.87
2018-09-01T07:21:47.765Z,17.40
2018-09-01T07:24:20.932Z,16.27
2018-09-01T07:29:37.888Z,17.20
2018-09-01T07:32:19.510Z,17.27
2018-09-01T07:34:52.789Z,47.53
2018-09-01T07:37:25.964Z,24.82
2018-09-01T07:39:59.145Z,18.90
2018-09-01T07:42:32.318Z,15.05
2018-09-01T07:45:05.643Z,15.80
2018-09-01T07:47:38.842Z,15.23
2018-09-01T07:50:12.034Z,13.60
2018-09-01T07:52:45.230Z,16.80
2018-09-01T07:55:18.582Z,14.03
2018-09-01T07:57:51.716Z,16.62
2018-09-01T08:00:24.893Z,12.93
2018-09-01T08:02:58.017Z,15.63
2018-09-01T08:05:31.230Z,9.93
2018-09-01T08:08:04.421Z,11.57
2018-09-01T08:10:37.615Z,10.85
2018-09-01T08:13:10.828Z,8.78
2018-09-01T08:15:44.033Z,8.85
2018-09-01T08:18:17.213Z,11.38
2018-09-01T08:20:50.373Z,11.80
2018-09-01T08:23:23.606Z,9.90
2018-09-01T08:25:56.792Z,9.13
2018-09-01T08:28:30.102Z,10.58
2018-09-01T08:31:03.480Z,9.68
2018-09-01T08:33:36.731Z,9.23
2018-09-01T08:36:09.869Z,9.13
2018-09-01T08:38:43.060Z,16.57
2018-09-01T08:41:16.250Z,10.38
2018-09-01T08:43:49.856Z,10.38
2018-09-01T08:46:23.105Z,13.25
2018-09-01T08:48:56.330Z,10.63
2018-09-01T08:51:29.521Z,7.37
2018-09-01T08:54:02.691Z,10.48
2018-09-01T08:56:35.968Z,7.65
2018-09-01T08:59:09.102Z,8.78
2018-09-01T09:01:42.320Z,10.60
2018-09-01T09:04:16.273Z,8.78
2018-09-01T09:06:49.429Z,6.87
2018-09-01T09:09:22.765Z,7.30
2018-09-01T09:11:55.945Z,10.38
2018-09-01T09:14:29.314Z,19.25
2018-09-01T09:17:02.538Z,13.48
2018-09-01T09:19:36.386Z,8.93
2018-09-01T09:22:09.583Z,10.00
2018-09-01T09:24:42.785Z,8.18
2018-09-01T09:27:15.967Z,10.55
2018-09-01T09:29:49.207Z,34.20
2018-09-01T09:32:22.367Z,16.87
2018-09-01T09:34:55.635Z,7.75
2018-09-01T09:37:28.787Z,11.60
2018-09-01T09:40:01.993Z,12.93
2018-09-01T09:42:35.209Z,6.53
2018-09-01T09:45:08.445Z,10.93
2018-09-01T09:47:41.598Z,13.68
2018-09-01T09:50:14.817Z,11.25
2018-09-01T09:52:47.970Z,96.02
2018-09-01T09:55:21.158Z,254.80
2018-09-01T09:57:54.373Z,124.25
2018-09-01T10:00:33.124Z,11.30
2018-09-01T10:03:06.563Z,26.35
2018-09-01T10:05:39.864Z,9.13
2018-09-01T10:08:12.938Z,17.57
2018-09-01T10:10:46.146Z,13.22
2018-09-01T10:13:19.355Z,6.80
2018-09-01T10:15:52.615Z,10.63
2018-09-01T10:18:25.742Z,9.95
2018-09-01T10:20:58.920Z,26.27
2018-09-01T10:23:32.126Z,10.75
2018-09-01T10:26:05.354Z,8.33
2018-09-01T10:28:38.548Z,7.45
2018-09-01T10:31:11.725Z,8.03
2018-09-01T10:33:44.893Z,8.55
2018-09-01T10:36:18.075Z,5.87
2018-09-01T10:38:51.230Z,5.37
2018-09-01T10:41:24.542Z,6.33
2018-09-01T10:43:58.065Z,5.87
2018-09-01T10:46:31.257Z,7.67
2018-09-01T10:49:04.944Z,10.13
2018-09-01T10:51:38.117Z,22.42
2018-09-01T10:54:11.302Z,7.75
2018-09-01T10:56:44.520Z,6.03
2018-09-01T10:59:17.764Z,3.80
2018-09-01T11:01:51.022Z,7.22
2018-09-01T11:04:24.252Z,6.85
2018-09-01T11:06:57.476Z,5.70
2018-09-01T11:09:30.692Z,5.92
2018-09-01T11:12:03.946Z,5.00
2018-09-01T11:14:37.196Z,6.90
2018-09-01T11:17:10.381Z,5.05
2018-09-01T11:19:43.881Z,4.70
2018-09-01T11:22:17.549Z,6.92
2018-09-01T11:24:50.758Z,5.47
2018-09-01T11:27:24.009Z,5.62
2018-09-01T11:29:57.129Z,2.58
2018-09-01T11:32:30.529Z,4.75
2018-09-01T11:35:03.766Z,7.33
2018-09-01T11:37:36.958Z,4.10
2018-09-01T11:40:10.155Z,5.90
2018-09-01T11:42:43.399Z,5.33
2018-09-01T11:45:16.573Z,5.50
2018-09-01T11:47:49.874Z,5.85
2018-09-01T11:50:23.043Z,4.75
2018-09-01T11:52:56.379Z,5.12
2018-09-01T11:55:29.462Z,7.28
2018-09-01T11:58:02.625Z,6.37
2018-09-01T12:00:35.819Z,6.60
2018-09-01T12:03:09.038Z,3.95
2018-09-01T12:05:42.232Z,4.03
2018-09-01T12:08:15.441Z,6.67
2018-09-01T12:10:48.635Z,5.50
2018-09-01T12:13:21.775Z,4.30
2018-09-01T12:15:55.053Z,4.53
2018-09-01T12:18:28.310Z,5.10
2018-09-01T12:21:01.490Z,5.10
2018-09-01T12:23:34.696Z,4.78
2018-09-01T12:26:07.959Z,4.42
2018-09-01T12:28:41.114Z,3.70
2018-09-01T12:31:14.299Z,3.67
2018-09-01T12:33:47.545Z,3.90
2018-09-01T12:36:21.042Z,4.80
2018-09-01T12:38:54.201Z,6.03
2018-09-01T12:41:27.404Z,4.75
2018-09-01T12:44:00.919Z,5.45
2018-09-01T12:46:34.092Z,4.78
2018-09-01T12:49:07.385Z,5.62
2018-09-01T12:51:40.546Z,4.12
2018-09-01T12:54:13.764Z,7.50
2018-09-01T12:56:46.991Z,5.87
2018-09-01T12:59:20.310Z,7.15
2018-09-01T13:01:53.526Z,4.15
2018-09-01T13:04:26.835Z,5.42
2018-09-01T13:07:00.022Z,3.62
2018-09-01T13:09:33.267Z,6.58
2018-09-01T13:12:06.451Z,3.70
2018-09-01T13:14:40.077Z,5.30
2018-09-01T13:17:13.497Z,7.65
2018-09-01T13:19:46.745Z,6.85
2018-09-01T13:22:20.190Z,3.95
2018-09-01T13:24:53.429Z,5.92
2018-09-01T13:27:26.650Z,5.55
2018-09-01T13:29:59.839Z,7.53
2018-09-01T13:32:33.151Z,3.40
2018-09-01T13:35:06.487Z,4.58
2018-09-01T13:37:39.766Z,4.87
2018-09-01T13:40:13.054Z,4.90
2018-09-01T13:42:46.247Z,4.33
2018-09-01T13:45:19.481Z,3.35
2018-09-01T13:47:52.690Z,4.72
2018-09-01T13:50:25.977Z,5.25
2018-09-01T13:52:59.264Z,4.03
2018-09-01T13:55:32.521Z,4.33
2018-09-01T13:58:05.821Z,4.25
2018-09-01T14:00:39.035Z,3.67
2018-09-01T14:03:12.210Z,4.87
2018-09-01T14:05:45.445Z,3.75
2018-09-01T14:08:18.628Z,4.92
2018-09-01T14:10:51.842Z,3.42
2018-09-01T14:13:24.971Z,2.95
2018-09-01T14:15:58.246Z,2.15
2018-09-01T14:18:31.475Z,2.60
2018-09-01T14:21:05.173Z,3.72
2018-09-01T14:23:38.408Z,5.25
2018-09-01T14:26:11.642Z,7.47
2018-09-01T14:28:44.800Z,4.37
2018-09-01T14:31:18.001Z,3.25
2018-09-01T14:33:51.208Z,5.42
2018-09-01T14:36:24.719Z,3.30
2018-09-01T14:38:57.874Z,3.67
2018-09-01T14:41:31.116Z,5.10
2018-09-01T14:44:04.593Z,3.12
2018-09-01T14:46:37.963Z,4.65
2018-09-01T14:49:11.139Z,2.10
2018-09-01T14:51:44.382Z,3.45
2018-09-01T14:54:17.596Z,6.00
2018-09-01T14:56:50.911Z,4.08
2018-09-01T14:59:24.282Z,3.52
2018-09-01T15:01:57.373Z,2.37
2018-09-01T15:04:30.678Z,4.33
2018-09-01T15:07:04.106Z,3.83
2018-09-01T15:09:37.355Z,3.10
2018-09-01T15:12:10.549Z,2.70
2018-09-01T15:14:43.740Z,3.02
2018-09-01T15:17:16.934Z,3.85
2018-09-01T15:19:50.170Z,3.77
2018-09-01T15:22:23.409Z,6.20
2018-09-01T15:24:56.613Z,5.22
2018-09-01T15:27:29.838Z,3.65
2018-09-01T15:30:03.172Z,3.67
2018-09-01T15:32:36.394Z,2.80
2018-09-01T15:35:09.599Z,4.80
2018-09-01T15:37:42.840Z,4.47
2018-09-01T15:40:16.174Z,3.85
2018-09-01T15:42:49.389Z,3.10
2018-09-01T15:45:22.619Z,4.65
2018-09-01T15:47:55.830Z,3.95
2018-09-01T15:50:29.087Z,5.45
2018-09-01T15:53:02.499Z,4.47
2018-09-01T15:55:35.732Z,4.45
2018-09-01T15:58:09.042Z,3.90
2018-09-01T16:00:42.346Z,3.95
2018-09-01T16:03:15.675Z,2.52
2018-09-01T16:05:49.181Z,3.20
2018-09-01T16:08:22.355Z,4.37
2018-09-01T16:10:55.509Z,6.03
2018-09-01T16:13:28.713Z,5.75
2018-09-01T16:16:01.925Z,3.67
2018-09-01T16:18:35.187Z,4.17
2018-09-01T16:21:08.442Z,2.87
2018-09-01T16:23:41.700Z,3.85
2018-09-01T16:26:14.948Z,4.42
2018-09-01T16:28:48.228Z,4.15
2018-09-01T16:31:21.434Z,3.67
2018-09-01T16:33:54.656Z,4.08
2018-09-01T16:36:27.837Z,4.05
2018-09-01T16:39:01.093Z,3.47
2018-09-01T16:41:34.294Z,4.33
2018-09-01T16:44:07.658Z,3.87
2018-09-01T16:46:40.830Z,3.10
2018-09-01T16:49:14.060Z,4.15
2018-09-01T16:51:47.269Z,3.00
2018-09-01T16:54:20.492Z,2.95
2018-09-01T16:56:53.718Z,5.00
2018-09-01T16:59:26.857Z,2.72
2018-09-01T17:02:00.029Z,2.35
2018-09-01T17:04:33.261Z,3.40
2018-09-01T17:07:06.490Z,5.03
2018-09-01T17:09:39.834Z,3.30
2018-09-01T17:12:13.117Z,3.25
2018-09-01T17:14:46.322Z,3.08
2018-09-01T17:17:19.568Z,3.55
2018-09-01T17:19:52.719Z,3.83
2018-09-01T17:22:26.008Z,5.92
2018-09-01T17:24:59.203Z,7.80
2018-09-01T17:27:32.436Z,5.05
2018-09-01T17:30:06.448Z,4.78
2018-09-01T17:32:39.690Z,21.73
2018-09-01T17:35:12.910Z,17.25
2018-09-01T17:37:46.201Z,8.00
2018-09-01T17:40:19.493Z,4.25
2018-09-01T17:42:52.681Z,5.85
2018-09-01T17:45:25.980Z,2.85
2018-09-01T17:47:59.162Z,4.17
2018-09-01T17:50:32.472Z,4.50
2018-09-01T17:53:05.786Z,4.30
2018-09-01T17:55:39.034Z,4.05
2018-09-01T17:58:12.243Z,4.12
2018-09-01T18:00:45.652Z,4.85
2018-09-01T18:03:18.926Z,4.95
2018-09-01T18:05:52.207Z,5.20
2018-09-01T18:08:25.457Z,3.77
2018-09-01T18:10:58.801Z,4.28
2018-09-01T18:13:32.016Z,3.27
2018-09-01T18:16:05.196Z,5.33
2018-09-01T18:18:38.487Z,3.00
2018-09-01T18:21:11.821Z,4.20
2018-09-01T18:23:44.997Z,3.15
2018-09-01T18:26:18.288Z,3.75
2018-09-01T18:28:51.551Z,3.10
2018-09-01T18:31:24.847Z,3.85
2018-09-01T18:33:58.143Z,3.45
2018-09-01T18:36:31.629Z,3.33
2018-09-01T18:39:08.020Z,3.00
2018-09-01T18:41:41.279Z,4.72
2018-09-01T18:44:16.870Z,3.45
2018-09-01T18:46:50.258Z,2.60
2018-09-01T18:49:23.463Z,5.28
2018-09-01T18:51:56.748Z,4.45
2018-09-01T18:54:30.004Z,5.20
2018-09-01T18:57:03.376Z,3.70
2018-09-01T18:59:36.743Z,4.30
2018-09-01T19:02:10.034Z,4.00
2018-09-01T19:04:43.346Z,3.10
2018-09-01T19:07:16.577Z,4.28
2018-09-01T19:09:49.723Z,2.87
2018-09-01T19:12:22.964Z,3.42
2018-09-01T19:14:56.203Z,2.92
2018-09-01T19:17:29.379Z,4.05
2018-09-01T19:20:02.582Z,4.35
2018-09-01T19:22:36.011Z,3.17
2018-09-01T19:25:09.521Z,3.25
2018-09-01T19:27:42.851Z,3.87
2018-09-01T19:30:16.090Z,4.80
2018-09-01T19:32:49.290Z,3.90
2018-09-01T19:35:22.544Z,4.83
2018-09-01T19:37:55.792Z,3.90
2018-09-01T19:40:29.111Z,3.22
2018-09-01T19:43:02.356Z,5.10
2018-09-01T19:45:35.736Z,3.42
2018-09-01T19:48:08.882Z,4.12
2018-09-01T19:50:42.460Z,3.40
2018-09-01T19:53:15.892Z,4.08
2018-09-01T19:55:49.177Z,4.12
2018-09-01T19:58:22.442Z,2.95
2018-09-01T20:00:55.667Z,5.12
2018-09-01T20:03:28.977Z,3.65
2018-09-01T20:06:02.271Z,5.70
2018-09-01T20:08:35.717Z,3.60
2018-09-01T20:11:09.070Z,3.52
2018-09-01T20:13:42.303Z,2.98
2018-09-01T20:16:15.682Z,4.40
2018-09-01T20:18:48.995Z,3.92
2018-09-01T20:21:22.194Z,3.45
2018-09-01T20:23:55.397Z,4.40
2018-09-01T20:26:29.252Z,3.67
2018-09-01T20:29:02.629Z,3.52
2018-09-01T20:31:35.842Z,5.72
2018-09-01T20:34:09.013Z,3.90
2018-09-01T20:36:42.207Z,3.85
2018-09-01T20:39:15.420Z,4.83
2018-09-01T20:41:48.717Z,4.12
2018-09-01T20:44:21.937Z,3.55
2018-09-01T20:46:55.191Z,3.22
2018-09-01T20:49:28.398Z,4.85
2018-09-01T20:52:01.996Z,4.50
2018-09-01T20:54:35.264Z,3.67
2018-09-01T20:57:08.528Z,5.45
2018-09-01T20:59:41.789Z,3.60
2018-09-01T21:02:14.970Z,5.37
2018-09-01T21:04:48.250Z,5.50
2018-09-01T21:07:21.457Z,3.22
2018-09-01T21:09:54.683Z,4.40
2018-09-01T21:12:27.830Z,5.55
2018-09-01T21:15:01.066Z,3.55
2018-09-01T21:17:34.279Z,5.08
2018-09-01T21:20:07.902Z,6.72
2018-09-01T21:22:41.384Z,5.35
2018-09-01T21:25:14.594Z,3.85
2018-09-01T21:27:47.775Z,4.20
2018-09-01T21:30:21.066Z,5.67
2018-09-01T21:32:54.228Z,5.55
2018-09-01T21:35:27.566Z,5.53
2018-09-01T21:38:00.780Z,3.65
2018-09-01T21:40:34.064Z,3.77
2018-09-01T21:43:07.250Z,4.45
2018-09-01T21:45:40.458Z,6.42
2018-09-01T21:48:13.613Z,3.30
2018-09-01T21:50:46.866Z,3.10
2018-09-01T21:53:20.049Z,4.55
2018-09-01T21:55:53.382Z,5.78
2018-09-01T21:58:26.580Z,4.30
2018-09-01T22:01:05.430Z,6.62
2018-09-01T22:03:44.155Z,6.20
2018-09-01T22:06:18.472Z,4.40
2018-09-01T22:08:51.744Z,4.30
2018-09-01T22:11:24.964Z,4.55
2018-09-01T22:13:58.430Z,4.00
2018-09-01T22:16:31.665Z,4.58
2018-09-01T22:19:04.980Z,4.03
2018-09-01T22:21:38.179Z,5.35
2018-09-01T22:24:11.341Z,4.47
2018-09-01T22:26:44.538Z,5.03
2018-09-01T22:29:17.683Z,4.33
2018-09-01T22:31:50.900Z,3.62
2018-09-01T22:34:24.110Z,5.58
2018-09-01T22:36:57.321Z,4.47
2018-09-01T22:39:30.425Z,3.92
2018-09-01T22:42:03.626Z,3.67
2018-09-01T22:44:36.781Z,3.90
2018-09-01T22:47:13.507Z,4.40
2018-09-01T22:49:46.690Z,4.12
2018-09-01T22:52:19.946Z,4.55
2018-09-01T22:54:53.158Z,4.15
2018-09-01T22:57:26.365Z,5.42
2018-09-01T22:59:59.525Z,4.05
2018-09-01T23:02:32.758Z,5.22
2018-09-01T23:05:05.947Z,3.42
2018-09-01T23:07:39.204Z,3.55
2018-09-01T23:10:12.317Z,4.50
2018-09-01T23:12:45.526Z,4.87
2018-09-01T23:15:18.660Z,4.90
2018-09-01T23:17:51.802Z,4.75
2018-09-01T23:20:24.936Z,3.87
2018-09-01T23:22:58.152Z,3.70
2018-09-01T23:25:31.288Z,3.52
2018-09-01T23:28:04.381Z,5.10
2018-09-01T23:30:37.666Z,5.37
2018-09-01T23:33:10.903Z,6.08
2018-09-01T23:35:44.067Z,4.25
2018-09-01T23:38:17.191Z,3.98
2018-09-01T23:40:50.376Z,4.65
2018-09-01T23:43:23.482Z,4.17
2018-09-01T23:45:56.656Z,5.05
2018-09-01T23:48:29.798Z,3.85
2018-09-01T23:51:03.033Z,4.60
2018-09-01T23:53:36.238Z,4.47
2018-09-01T23:56:09.485Z,4.20
2018-09-01T23:58:42.608Z,3.75
